METAR
Output Produced by Metar
found at http://aviationweather.gov/adds/metars/
 

Data at: 1018 UTC 07 May 2021

METAR for:WIII (Jakarta Intl, JB, ID)
Text:WIII 071000Z 05009KT 9999 SCT021 30/25 Q1007 NOSIG
Temperature: 30.0°C ( 86°F)
Dewpoint: 25.0°C ( 77°F) [RH = 75%]
Pressure (altimeter):29.73 inches Hg (1007.0 mb)
Winds:from the NE (50 degrees) at 10 MPH (9 knots; 4.6 m/s)
Visibility:6 or more sm (10+ km)
Ceiling:at least 12,000 feet AGL
Clouds: scattered clouds at 2100 feet AGL